Time;durP1;ratioP1;P1;durP2;ratioP2;P2;SDS_P1;SDS_P2;PMS_P1;PMS_P2;Temp;Humidity;BMP_temperature;BMP_pressure;BME280_temperature;BME280_humidity;BME280_pressure;Samples;Min_cycle;Max_cycle;Signal;HPM_P1;HPM_P2
2021/12/25 00:01:29;;;;;;;4.78;4.13;;;0.60;99.90;;;;;;5041790;28;20491;-51
2021/12/25 00:03:57;;;;;;;5.05;4.30;;;0.60;99.90;;;;;;5041222;28;20262;-48
2021/12/25 00:06:24;;;;;;;3.53;3.22;;;0.50;99.90;;;;;;5040718;28;20542;-51
2021/12/25 00:08:52;;;;;;;4.90;4.43;;;0.50;99.90;;;;;;5041280;28;20196;-53
2021/12/25 00:11:19;;;;;;;5.78;4.75;;;0.50;99.90;;;;;;5041254;28;20388;-52
2021/12/25 00:13:46;;;;;;;7.32;4.50;;;0.50;99.90;;;;;;5041642;28;20502;-49
2021/12/25 00:16:14;;;;;;;6.72;5.90;;;0.40;99.90;;;;;;5040782;28;20228;-49
2021/12/25 00:18:41;;;;;;;7.93;4.80;;;0.50;99.90;;;;;;5041668;28;20247;-51
2021/12/25 00:21:09;;;;;;;4.47;3.35;;;0.30;99.90;;;;;;5040955;28;20502;-50
2021/12/25 00:23:37;;;;;;;6.30;4.25;;;0.20;99.90;;;;;;5041532;28;20197;-49
2021/12/25 00:26:11;;;;;;;4.70;3.88;;;0.10;99.90;;;;;;5041096;28;20238;-50
2021/12/25 00:31:46;;;;;;;4.13;3.67;;;0.10;99.90;;;;;;5040907;28;20204;-54
2021/12/25 00:34:01;;;;;;;5.45;4.40;;;0.10;99.90;;;;;;5041052;28;20204;-51
2021/12/25 00:36:28;;;;;;;6.40;5.22;;;0.10;99.90;;;;;;5040764;28;20236;-52
2021/12/25 00:38:55;;;;;;;6.25;4.10;;;0.00;99.90;;;;;;5041138;28;20632;-51
2021/12/25 00:41:24;;;;;;;3.70;3.30;;;0.00;99.90;;;;;;5040764;28;20208;-50
2021/12/25 00:43:52;;;;;;;4.13;2.60;;;-0.20;99.90;;;;;;5041032;28;20196;-48
2021/12/25 00:46:19;;;;;;;2.40;2.15;;;-0.50;99.90;;;;;;5041006;28;20224;-50
2021/12/25 00:48:47;;;;;;;4.20;3.00;;;-0.60;99.90;;;;;;5041186;28;20240;-49
2021/12/25 00:51:14;;;;;;;4.60;2.78;;;-0.70;99.90;;;;;;5041043;28;20200;-49
2021/12/25 00:53:42;;;;;;;2.00;1.90;;;-0.70;99.90;;;;;;5041023;28;20487;-48
2021/12/25 00:56:09;;;;;;;3.25;2.80;;;-0.80;99.90;;;;;;5040898;28;20464;-52
2021/12/25 00:58:37;;;;;;;3.25;2.67;;;-0.80;99.90;;;;;;5040825;28;20216;-49
2021/12/25 01:01:04;;;;;;;2.92;2.70;;;-0.80;99.90;;;;;;5041121;28;20390;-48
2021/12/25 01:03:32;;;;;;;2.78;2.00;;;-0.80;99.90;;;;;;5041085;28;20196;-49
2021/12/25 01:05:59;;;;;;;2.10;1.80;;;-0.90;99.90;;;;;;5040620;28;20227;-50
2021/12/25 01:08:26;;;;;;;3.72;2.03;;;-1.10;99.90;;;;;;5042380;28;20247;-50
2021/12/25 01:10:53;;;;;;;1.45;1.35;;;-1.10;99.90;;;;;;5044843;28;20367;-51
2021/12/25 01:13:31;;;;;;;1.77;1.67;;;-1.10;99.90;;;;;;5044419;28;20200;-50
2021/12/25 01:19:03;;;;;;;1.45;1.35;;;-1.20;99.90;;;;;;5044538;28;20303;-51
2021/12/25 01:29:32;;;;;;;1.58;1.30;;;-1.20;99.90;;;;;;5044136;28;20200;-48
2021/12/25 01:33:22;;;;;;;3.38;1.30;;;-1.30;99.90;;;;;;5044304;28;20266;-51
2021/12/25 01:48:22;;;;;;;2.03;1.30;;;-1.40;99.90;;;;;;5043838;28;20196;-53
2021/12/25 01:50:50;;;;;;;3.13;2.15;;;-1.50;99.90;;;;;;5043499;28;20254;-48
2021/12/25 01:53:17;;;;;;;1.45;1.15;;;-1.60;99.90;;;;;;5043460;28;20196;-51
2021/12/25 01:55:45;;;;;;;3.53;1.35;;;-1.60;99.90;;;;;;5043135;28;20224;-50
2021/12/25 01:58:12;;;;;;;2.50;1.48;;;-1.60;99.90;;;;;;5044438;28;20196;-49
2021/12/25 02:00:44;;;;;;;3.33;1.45;;;-1.70;99.90;;;;;;5046768;28;20196;-52
2021/12/25 02:03:15;;;;;;;1.25;0.70;;;-1.80;99.90;;;;;;5046211;28;20275;-49
2021/12/25 02:05:43;;;;;;;1.50;0.90;;;-1.90;99.90;;;;;;5026731;28;20224;-51
2021/12/25 02:08:27;;;;;;;3.20;0.95;;;-2.00;99.90;;;;;;5044262;28;20277;-51
2021/12/25 02:10:55;;;;;;;0.77;0.73;;;-1.90;99.90;;;;;;5043234;28;20250;-55
2021/12/25 02:13:25;;;;;;;0.90;0.75;;;-2.10;99.90;;;;;;5043709;28;20530;-53
2021/12/25 02:15:55;;;;;;;2.70;0.85;;;-2.10;99.90;;;;;;5043117;28;20255;-48
2021/12/25 02:18:32;;;;;;;1.27;0.82;;;-2.10;99.90;;;;;;5044236;28;20223;-52
2021/12/25 02:21:10;;;;;;;0.93;0.77;;;-2.10;99.90;;;;;;5044568;28;20204;-55
2021/12/25 02:23:39;;;;;;;3.88;1.05;;;-2.10;99.90;;;;;;5044837;28;20189;-51
2021/12/25 02:26:06;;;;;;;1.13;0.82;;;-2.20;99.90;;;;;;5044576;28;20380;-51
2021/12/25 02:28:34;;;;;;;1.50;0.85;;;-2.20;99.90;;;;;;5044000;28;20204;-57
2021/12/25 02:31:05;;;;;;;3.13;1.30;;;-2.20;99.90;;;;;;5044527;28;20560;-51
2021/12/25 02:33:33;;;;;;;1.10;1.05;;;-2.30;99.90;;;;;;5043061;28;20204;-49
2021/12/25 02:36:03;;;;;;;1.10;1.00;;;-2.30;99.90;;;;;;5042909;28;20630;-51
2021/12/25 02:38:31;;;;;;;1.05;0.98;;;-2.30;99.90;;;;;;5042762;28;20197;-53
2021/12/25 02:40:58;;;;;;;1.40;1.30;;;-2.50;99.90;;;;;;5043043;28;20433;-51
2021/12/25 02:43:25;;;;;;;1.00;0.90;;;-2.40;99.90;;;;;;5042979;28;20205;-52
2021/12/25 02:45:55;;;;;;;1.30;0.75;;;-2.50;99.90;;;;;;5042555;28;20566;-53
2021/12/25 02:48:23;;;;;;;1.80;1.27;;;-2.50;99.90;;;;;;5042471;28;20204;-50
2021/12/25 02:50:50;;;;;;;1.30;1.20;;;-2.60;99.90;;;;;;5042742;28;20196;-50
2021/12/25 02:53:18;;;;;;;1.00;0.90;;;-2.60;99.90;;;;;;5042467;28;20203;-50
2021/12/25 02:55:46;;;;;;;1.02;0.93;;;-2.60;99.90;;;;;;5042504;28;20624;-52
2021/12/25 02:58:14;;;;;;;1.70;1.15;;;-2.70;99.90;;;;;;5042533;28;20220;-54
2021/12/25 03:00:50;;;;;;;3.92;1.17;;;-2.70;99.90;;;;;;5042507;28;20228;-53
2021/12/25 03:03:19;;;;;;;6.78;1.60;;;-2.60;99.90;;;;;;5024945;28;20222;-53
2021/12/25 03:05:47;;;;;;;1.90;0.63;;;-2.70;99.90;;;;;;5042341;28;20228;-55
2021/12/25 03:08:15;;;;;;;1.50;1.00;;;-2.70;99.90;;;;;;5042690;28;20415;-50
2021/12/25 03:10:42;;;;;;;2.80;1.45;;;-2.60;99.90;;;;;;5042661;28;20266;-54
2021/12/25 03:15:45;;;;;;;1.38;1.10;;;-2.70;99.90;;;;;;5041775;28;20220;-53
2021/12/25 03:18:18;;;;;;;1.20;0.90;;;-2.80;99.90;;;;;;5041835;28;20199;-56
2021/12/25 03:20:48;;;;;;;0.80;0.73;;;-2.90;99.90;;;;;;5048159;28;20230;-54
2021/12/25 03:23:19;;;;;;;1.20;0.75;;;-2.90;99.90;;;;;;5046452;28;20211;-53
2021/12/25 03:25:47;;;;;;;1.40;1.30;;;-2.90;99.90;;;;;;5041855;28;20228;-52
2021/12/25 03:28:21;;;;;;;0.63;0.60;;;-2.80;99.90;;;;;;5041761;28;20511;-53
2021/12/25 03:30:49;;;;;;;1.50;1.40;;;-2.80;99.90;;;;;;5041529;28;20199;-52
2021/12/25 03:33:19;;;;;;;1.50;0.90;;;-2.80;99.90;;;;;;5041443;28;20200;-53
2021/12/25 03:35:47;;;;;;;1.50;1.15;;;-2.90;99.90;;;;;;5041889;28;20628;-50
2021/12/25 03:38:19;;;;;;;8.13;1.88;;;-3.00;99.90;;;;;;5041765;28;20436;-52
2021/12/25 03:40:50;;;;;;;0.60;0.60;;;-3.00;99.90;;;;;;5041833;28;20224;-55
2021/12/25 03:43:17;;;;;;;1.13;1.10;;;-2.90;99.90;;;;;;5041747;28;20200;-55
2021/12/25 03:45:46;;;;;;;0.90;0.60;;;-2.90;99.90;;;;;;5024082;28;20224;-49
2021/12/25 03:48:41;;;;;;;1.00;0.90;;;-2.90;99.90;;;;;;5041697;28;20263;-51
2021/12/25 03:59:07;;;;;;;4.85;1.40;;;-3.00;99.90;;;;;;5041350;28;20220;-54
2021/12/25 04:04:15;;;;;;;6.90;1.08;;;-3.10;99.90;;;;;;5041943;28;20391;-54
2021/12/25 04:06:51;;;;;;;0.60;0.60;;;-3.00;99.90;;;;;;5040872;28;20236;-57
2021/12/25 04:09:26;;;;;;;0.70;0.70;;;-2.90;99.90;;;;;;5041406;28;20509;-53
2021/12/25 04:12:02;;;;;;;2.25;1.10;;;-3.00;99.90;;;;;;5041043;28;20425;-53
2021/12/25 04:14:29;;;;;;;3.80;1.20;;;-2.90;99.90;;;;;;5041310;28;20537;-52
2021/12/25 04:16:57;;;;;;;1.75;0.95;;;-2.80;99.90;;;;;;5040762;28;20270;-51
2021/12/25 04:19:25;;;;;;;1.35;0.80;;;-2.80;99.90;;;;;;5041351;28;20255;-53
2021/12/25 04:22:01;;;;;;;0.82;0.75;;;-2.80;99.90;;;;;;5041521;28;20219;-54
2021/12/25 04:24:32;;;;;;;1.17;1.08;;;-2.90;99.90;;;;;;5023851;28;20200;-50
2021/12/25 04:26:59;;;;;;;1.83;1.10;;;-3.00;99.90;;;;;;5024052;28;20227;-50
2021/12/25 05:01:46;;;;;;;1.23;1.13;;;-3.30;99.90;;;;;;5042275;28;20436;-51
2021/12/25 05:04:26;;;;;;;1.40;1.25;;;-3.30;99.90;;;;;;5045724;28;20199;-50
2021/12/25 05:06:54;;;;;;;0.95;0.95;;;-3.20;99.90;;;;;;5071430;22;20227;-49
2021/12/25 05:09:21;;;;;;;1.48;0.95;;;-3.10;99.90;;;;;;5059481;28;20262;-53
2021/12/25 05:11:49;;;;;;;2.08;1.48;;;-3.00;99.90;;;;;;5059427;28;20206;-51
2021/12/25 05:14:16;;;;;;;1.52;1.42;;;-3.00;99.90;;;;;;5059582;28;20553;-50
2021/12/25 05:16:43;;;;;;;1.10;0.98;;;-3.10;99.90;;;;;;5059178;28;20258;-47
2021/12/25 05:19:10;;;;;;;2.13;1.35;;;-3.20;99.90;;;;;;5059555;28;20206;-47
2021/12/25 05:21:38;;;;;;;1.73;1.13;;;-3.20;99.90;;;;;;5059452;28;20205;-46
2021/12/25 05:24:06;;;;;;;3.78;1.25;;;-3.20;99.90;;;;;;5059535;28;20573;-50
2021/12/25 05:26:34;;;;;;;3.20;1.95;;;-3.40;99.90;;;;;;5059065;28;20216;-49
2021/12/25 05:29:02;;;;;;;2.05;1.38;;;-3.40;99.90;;;;;;5059513;28;20195;-47
2021/12/25 05:31:32;;;;;;;5.05;1.65;;;-3.40;99.90;;;;;;5059368;28;20200;-48
2021/12/25 05:34:00;;;;;;;6.28;1.80;;;-3.40;99.90;;;;;;5059806;28;20200;-50
2021/12/25 05:36:28;;;;;;;1.95;0.82;;;-3.30;99.90;;;;;;5059284;28;20223;-50
2021/12/25 05:38:59;;;;;;;1.65;1.00;;;-3.30;99.90;;;;;;5059397;28;20261;-52
2021/12/25 05:41:29;;;;;;;1.15;1.15;;;-3.10;99.90;;;;;;5059673;28;20277;-47
2021/12/25 05:43:57;;;;;;;1.02;0.98;;;-2.90;99.90;;;;;;5059672;28;20233;-51
2021/12/25 05:46:24;;;;;;;0.80;0.80;;;-2.90;99.90;;;;;;5059021;28;20456;-49
2021/12/25 05:48:52;;;;;;;2.10;1.30;;;-3.00;99.90;;;;;;5059290;28;20205;-46
2021/12/25 05:51:25;;;;;;;2.88;1.48;;;-3.00;99.90;;;;;;5059366;28;20510;-52
2021/12/25 05:53:52;;;;;;;3.45;1.65;;;-3.10;99.90;;;;;;5059368;28;20201;-48
2021/12/25 05:56:24;;;;;;;3.33;1.10;;;-3.20;99.90;;;;;;5062340;28;20227;-49
2021/12/25 05:58:51;;;;;;;1.58;1.48;;;-3.30;99.90;;;;;;5062710;28;20238;-51
2021/12/25 06:01:18;;;;;;;6.97;2.28;;;-3.40;99.90;;;;;;5062817;28;20219;-45
2021/12/25 06:03:46;;;;;;;3.58;2.00;;;-3.50;99.90;;;;;;5062896;28;20223;-49
2021/12/25 06:06:14;;;;;;;2.67;1.05;;;-3.30;99.90;;;;;;5062867;28;20227;-47
2021/12/25 06:08:41;;;;;;;1.10;0.90;;;-3.20;99.90;;;;;;5062846;28;20669;-45
2021/12/25 06:11:08;;;;;;;1.90;1.08;;;-3.30;99.90;;;;;;5063164;28;20199;-47
2021/12/25 06:13:45;;;;;;;1.88;1.73;;;-3.20;99.90;;;;;;5062562;28;20200;-48
2021/12/25 06:16:12;;;;;;;2.00;1.80;;;-3.30;99.90;;;;;;5062055;28;20228;-48
2021/12/25 06:18:39;;;;;;;1.77;1.10;;;-3.40;99.90;;;;;;5062013;28;20196;-49
2021/12/25 06:21:07;;;;;;;2.78;1.52;;;-3.50;99.90;;;;;;5062332;28;20417;-46
2021/12/25 06:23:34;;;;;;;1.40;1.13;;;-3.50;99.90;;;;;;5062301;28;20195;-45
2021/12/25 06:26:01;;;;;;;2.53;2.33;;;-3.30;99.90;;;;;;5062750;28;20223;-47
2021/12/25 06:28:29;;;;;;;2.05;1.48;;;-3.40;99.90;;;;;;5062009;28;20211;-47
2021/12/25 06:30:56;;;;;;;1.92;1.27;;;-3.50;99.90;;;;;;5062618;28;20261;-48
2021/12/25 06:33:24;;;;;;;1.88;1.25;;;-3.40;99.90;;;;;;5062320;28;20229;-48
2021/12/25 06:35:51;;;;;;;3.22;1.40;;;-3.40;99.90;;;;;;5061767;28;20258;-44
2021/12/25 06:38:18;;;;;;;1.05;1.00;;;-3.40;99.90;;;;;;5061991;28;20506;-45
2021/12/25 06:40:45;;;;;;;1.63;1.25;;;-3.50;99.90;;;;;;5061697;28;20247;-45
2021/12/25 06:43:13;;;;;;;1.85;1.25;;;-3.20;99.90;;;;;;5062201;28;20569;-44
2021/12/25 06:45:41;;;;;;;2.10;1.05;;;-3.30;99.90;;;;;;5061754;28;20196;-44
2021/12/25 06:48:09;;;;;;;1.42;1.27;;;-3.40;99.90;;;;;;5061758;28;20196;-44
2021/12/25 06:50:36;;;;;;;2.63;1.40;;;-3.40;99.90;;;;;;5061876;28;20267;-43
2021/12/25 06:53:03;;;;;;;1.02;0.93;;;-3.50;99.90;;;;;;5062093;28;20200;-49
2021/12/25 06:55:30;;;;;;;1.50;1.13;;;-3.60;99.90;;;;;;5061550;28;20506;-46
2021/12/25 06:57:59;;;;;;;2.95;1.77;;;-3.60;99.90;;;;;;5060450;28;20505;-47
2021/12/25 07:00:27;;;;;;;2.28;1.10;;;-3.50;99.90;;;;;;5062548;28;20403;-44
2021/12/25 07:02:55;;;;;;;4.10;1.88;;;-3.60;99.90;;;;;;5063368;28;20214;-46
2021/12/25 07:05:23;;;;;;;1.83;1.67;;;-3.70;99.90;;;;;;5062254;28;20262;-44
2021/12/25 07:07:51;;;;;;;2.17;1.80;;;-3.70;99.90;;;;;;5061992;28;20314;-45
2021/12/25 07:10:19;;;;;;;3.70;1.48;;;-3.70;99.90;;;;;;5062290;28;20314;-45
2021/12/25 07:12:48;;;;;;;2.35;1.40;;;-3.80;99.90;;;;;;5062173;28;20237;-46
2021/12/25 07:15:17;;;;;;;1.58;1.48;;;-3.70;99.90;;;;;;5062214;28;20237;-49
2021/12/25 07:17:44;;;;;;;3.05;1.20;;;-3.70;99.90;;;;;;5061366;28;20219;-47
2021/12/25 07:20:12;;;;;;;3.65;2.05;;;-3.70;99.90;;;;;;5061713;28;20602;-46
2021/12/25 07:22:39;;;;;;;2.05;1.75;;;-3.60;99.90;;;;;;5062003;28;20195;-48
2021/12/25 07:25:08;;;;;;;2.28;1.45;;;-3.50;99.90;;;;;;5061971;28;20196;-48
2021/12/25 07:27:36;;;;;;;1.77;1.65;;;-3.50;99.90;;;;;;5060901;28;20215;-48
2021/12/25 07:30:05;;;;;;;2.85;1.52;;;-3.20;99.90;;;;;;5061269;28;20274;-48
2021/12/25 07:32:33;;;;;;;3.20;1.63;;;-3.30;99.90;;;;;;5060964;28;20195;-44
2021/12/25 07:35:00;;;;;;;1.52;1.30;;;-3.60;99.90;;;;;;5061299;28;20199;-46
2021/12/25 07:37:27;;;;;;;2.40;1.70;;;-3.70;99.90;;;;;;5060626;28;20220;-45
2021/12/25 07:39:56;;;;;;;1.45;1.10;;;-3.50;99.90;;;;;;5061205;28;20245;-46
2021/12/25 07:42:23;;;;;;;1.40;1.30;;;-3.40;99.90;;;;;;5061362;28;20195;-47
2021/12/25 07:44:55;;;;;;;1.17;1.08;;;-3.30;99.90;;;;;;5061357;28;20218;-43
2021/12/25 07:47:23;;;;;;;1.52;1.20;;;-3.40;99.90;;;;;;5061122;28;20223;-44
2021/12/25 07:49:51;;;;;;;1.52;1.10;;;-3.60;99.90;;;;;;5061953;28;20309;-44
2021/12/25 07:52:18;;;;;;;1.77;1.33;;;-3.50;99.90;;;;;;5061405;28;20498;-43
2021/12/25 07:54:46;;;;;;;3.42;2.17;;;-3.40;99.90;;;;;;5061033;28;20204;-50
2021/12/25 07:57:13;;;;;;;1.70;1.60;;;-3.50;99.90;;;;;;5061108;28;20406;-44
2021/12/25 07:59:40;;;;;;;5.88;2.83;;;-3.50;99.90;;;;;;5060764;28;20219;-44
2021/12/25 08:02:08;;;;;;;2.85;2.05;;;-3.70;99.90;;;;;;5061102;28;20277;-46
2021/12/25 08:04:36;;;;;;;3.88;2.50;;;-3.80;99.90;;;;;;5060816;28;20196;-45
2021/12/25 08:07:03;;;;;;;2.10;1.58;;;-3.80;99.90;;;;;;5060539;28;20563;-44
2021/12/25 08:09:32;;;;;;;3.25;2.08;;;-3.80;99.90;;;;;;5060674;28;20196;-45
2021/12/25 08:12:01;;;;;;;3.97;1.85;;;-3.70;99.90;;;;;;5060546;28;20254;-50
2021/12/25 08:14:30;;;;;;;2.78;1.38;;;-3.60;99.90;;;;;;5060495;28;20246;-47
2021/12/25 08:16:59;;;;;;;3.65;1.70;;;-3.50;99.90;;;;;;5060453;28;20223;-47
2021/12/25 08:19:26;;;;;;;2.97;2.25;;;-3.40;99.90;;;;;;5059755;28;20241;-44
2021/12/25 08:21:54;;;;;;;2.10;1.70;;;-3.20;99.90;;;;;;5060514;28;20238;-49
2021/12/25 08:24:21;;;;;;;1.70;1.50;;;-3.10;99.90;;;;;;5060222;28;20310;-49
2021/12/25 08:26:50;;;;;;;1.45;1.27;;;-3.20;99.90;;;;;;5059881;28;20238;-49
2021/12/25 08:29:18;;;;;;;2.45;1.50;;;-3.20;99.90;;;;;;5059806;28;20426;-45
2021/12/25 08:31:45;;;;;;;1.52;1.42;;;-3.30;99.90;;;;;;5059912;28;20253;-48
2021/12/25 08:34:13;;;;;;;2.72;1.58;;;-3.20;99.90;;;;;;5060648;28;20235;-46
2021/12/25 08:36:41;;;;;;;2.13;1.92;;;-3.00;99.90;;;;;;5059474;28;20565;-47
2021/12/25 08:39:08;;;;;;;2.45;1.73;;;-3.00;99.90;;;;;;5059891;28;20204;-46
2021/12/25 08:41:37;;;;;;;1.77;1.40;;;-3.20;99.90;;;;;;5059754;28;20273;-45
2021/12/25 08:44:30;;;;;;;3.08;1.70;;;-3.30;99.90;;;;;;5059805;28;20625;-48
2021/12/25 08:46:58;;;;;;;1.98;1.88;;;-3.50;99.90;;;;;;5059636;28;20261;-45
2021/12/25 08:49:29;;;;;;;2.67;1.30;;;-3.70;99.90;;;;;;5060093;28;20449;-45
2021/12/25 08:51:59;;;;;;;2.33;1.85;;;-3.70;99.90;;;;;;5059704;28;20203;-44
2021/12/25 08:54:27;;;;;;;3.22;2.67;;;-3.80;99.90;;;;;;5059967;28;20502;-47
2021/12/25 08:56:54;;;;;;;2.42;2.22;;;-3.70;99.90;;;;;;5059309;28;20242;-46
2021/12/25 08:59:22;;;;;;;3.50;2.33;;;-3.50;99.90;;;;;;5059715;28;20207;-47
2021/12/25 09:01:49;;;;;;;2.15;1.95;;;-3.50;99.90;;;;;;5059142;28;20588;-46
2021/12/25 09:04:17;;;;;;;2.97;1.92;;;-3.60;99.90;;;;;;5059791;28;20241;-49
2021/12/25 09:06:44;;;;;;;1.77;1.67;;;-3.50;99.90;;;;;;5059142;28;20255;-48
2021/12/25 09:09:12;;;;;;;2.40;1.70;;;-3.60;99.90;;;;;;5059667;28;20549;-44
2021/12/25 09:11:40;;;;;;;2.55;1.98;;;-3.70;99.90;;;;;;5058532;28;20295;-45
2021/12/25 09:14:08;;;;;;;2.33;1.52;;;-3.60;99.90;;;;;;5059243;28;20211;-46
2021/12/25 09:16:36;;;;;;;2.03;1.92;;;-3.60;99.90;;;;;;5058997;28;20227;-51
2021/12/25 09:19:04;;;;;;;4.20;2.17;;;-3.60;99.90;;;;;;5059717;28;20425;-43
2021/12/25 09:21:31;;;;;;;3.40;2.78;;;-3.40;99.90;;;;;;5059994;28;20437;-45
2021/12/25 09:23:59;;;;;;;3.17;2.00;;;-3.40;99.90;;;;;;5059186;28;20188;-46
2021/12/25 09:26:26;;;;;;;2.80;2.40;;;-3.30;99.90;;;;;;5059234;28;20219;-47
2021/12/25 09:28:54;;;;;;;5.85;2.20;;;-3.30;99.90;;;;;;5059367;28;20199;-47
2021/12/25 09:31:21;;;;;;;2.92;2.13;;;-3.20;99.90;;;;;;5063039;28;20207;-45
2021/12/25 09:33:49;;;;;;;2.13;1.90;;;-3.00;99.90;;;;;;5063609;28;20203;-44
2021/12/25 09:36:17;;;;;;;5.20;2.63;;;-3.10;99.90;;;;;;5063388;28;20470;-44
2021/12/25 09:38:44;;;;;;;2.30;2.00;;;-3.00;99.90;;;;;;5062848;28;20282;-47
2021/12/25 09:41:12;;;;;;;3.42;1.90;;;-3.00;99.90;;;;;;5063248;28;20231;-49
2021/12/25 09:43:40;;;;;;;2.47;2.22;;;-3.00;99.90;;;;;;5063109;28;20200;-47
2021/12/25 09:46:07;;;;;;;6.20;2.88;;;-3.10;99.90;;;;;;5062997;28;20245;-44
2021/12/25 09:48:36;;;;;;;2.80;2.15;;;-3.10;99.90;;;;;;5063216;28;20521;-45
2021/12/25 09:51:06;;;;;;;4.75;3.03;;;-3.20;99.90;;;;;;5062542;28;20337;-46
2021/12/25 09:53:34;;;;;;;2.55;2.35;;;-3.20;99.90;;;;;;5063455;28;20200;-47
2021/12/25 09:56:03;;;;;;;4.30;3.17;;;-3.20;99.90;;;;;;5062958;28;20430;-45
2021/12/25 09:58:35;;;;;;;5.28;3.17;;;-3.30;99.90;;;;;;5063431;28;20358;-45
2021/12/25 10:01:03;;;;;;;4.80;3.08;;;-3.10;99.90;;;;;;5062639;28;20231;-46
2021/12/25 10:03:48;;;;;;;5.53;3.72;;;-3.00;99.90;;;;;;5063201;28;20266;-45
2021/12/25 10:06:31;;;;;;;4.55;2.88;;;-2.90;99.90;;;;;;5062658;28;20227;-44
2021/12/25 10:08:58;;;;;;;4.95;3.50;;;-3.10;99.90;;;;;;5063201;28;20196;-46
2021/12/25 10:11:27;;;;;;;3.70;3.22;;;-3.10;99.90;;;;;;5062605;28;20212;-44
2021/12/25 10:13:55;;;;;;;9.60;3.95;;;-3.10;99.90;;;;;;5063327;28;20548;-47
2021/12/25 10:16:27;;;;;;;4.95;3.63;;;-3.20;99.90;;;;;;5061964;28;20267;-48
2021/12/25 10:19:10;;;;;;;4.75;3.30;;;-3.00;99.90;;;;;;5062916;28;20213;-44
2021/12/25 10:21:38;;;;;;;4.78;3.50;;;-2.70;99.90;;;;;;5062670;28;20537;-45
2021/12/25 10:24:16;;;;;;;8.38;3.90;;;-2.60;99.90;;;;;;5062684;28;20199;-46
2021/12/25 10:26:46;;;;;;;4.75;2.53;;;-2.50;99.90;;;;;;5062106;28;20215;-45
2021/12/25 10:29:21;;;;;;;5.85;2.00;;;-2.40;99.90;;;;;;5062426;28;20203;-46
2021/12/25 10:31:55;;;;;;;5.03;2.70;;;-2.50;99.90;;;;;;5062105;28;20417;-47
2021/12/25 10:34:25;;;;;;;2.50;2.30;;;-2.50;99.90;;;;;;5062468;28;20192;-44
2021/12/25 10:36:54;;;;;;;2.40;2.20;;;-2.60;99.90;;;;;;5061839;28;20220;-43
2021/12/25 10:39:27;;;;;;;3.80;3.50;;;-2.60;99.90;;;;;;5062744;28;20237;-45
2021/12/25 10:42:03;;;;;;;6.80;3.90;;;-2.70;99.90;;;;;;5061813;28;20224;-46
2021/12/25 10:44:37;;;;;;;4.78;3.65;;;-2.50;99.90;;;;;;5062531;28;20194;-47
2021/12/25 10:47:07;;;;;;;7.80;3.33;;;-2.30;99.90;;;;;;5062057;28;20477;-48
2021/12/25 10:49:55;;;;;;;2.72;1.75;;;-2.10;99.90;;;;;;5062404;28;20204;-43
2021/12/25 10:52:24;;;;;;;2.67;2.13;;;-1.90;99.90;;;;;;5062027;28;20254;-44
2021/12/25 10:55:00;;;;;;;3.88;1.67;;;-1.80;99.90;;;;;;5063234;28;20238;-45
2021/12/25 10:57:34;;;;;;;2.65;2.45;;;-1.60;99.90;;;;;;5062437;28;20288;-44
2021/12/25 11:00:14;;;;;;;1.90;1.70;;;-1.50;99.90;;;;;;5063110;28;20249;-44
2021/12/25 11:02:51;;;;;;;2.17;1.65;;;-1.50;99.90;;;;;;5062035;28;20290;-48
2021/12/25 11:05:30;;;;;;;3.45;2.55;;;-1.40;99.90;;;;;;5062070;28;20259;-43
2021/12/25 11:08:04;;;;;;;4.10;2.45;;;-1.10;99.90;;;;;;5074032;22;20462;-50
2021/12/25 11:10:40;;;;;;;3.83;3.40;;;-1.10;99.90;;;;;;5063548;28;20231;-46
2021/12/25 11:13:17;;;;;;;9.00;3.00;;;-1.00;99.90;;;;;;5063178;28;20241;-46
2021/12/25 11:15:44;;;;;;;6.78;3.05;;;-0.80;99.90;;;;;;5064652;28;20199;-47
2021/12/25 11:18:13;;;;;;;3.97;2.40;;;-0.90;99.90;;;;;;5064135;28;20265;-45
2021/12/25 11:20:41;;;;;;;4.90;3.30;;;-1.00;99.90;;;;;;5063398;28;20196;-46
2021/12/25 11:23:10;;;;;;;2.83;2.25;;;-1.00;99.90;;;;;;5063066;28;20393;-46
2021/12/25 11:25:40;;;;;;;4.78;2.55;;;-0.90;99.90;;;;;;5062274;28;20498;-49
2021/12/25 11:28:10;;;;;;;8.88;5.00;;;-0.70;99.90;;;;;;5062104;28;20222;-48
2021/12/25 11:30:43;;;;;;;2.25;2.05;;;-0.70;99.90;;;;;;5062368;28;20196;-49
2021/12/25 11:33:12;;;;;;;3.13;2.30;;;-0.70;99.90;;;;;;5063470;28;20536;-48
2021/12/25 11:35:40;;;;;;;7.47;4.75;;;-0.80;99.90;;;;;;5063607;28;20199;-47
2021/12/25 11:38:09;;;;;;;3.50;3.15;;;-0.80;99.90;;;;;;5062433;28;20219;-46
2021/12/25 11:40:44;;;;;;;6.82;3.55;;;-1.00;99.90;;;;;;5062358;28;20219;-47
2021/12/25 11:43:11;;;;;;;6.38;3.15;;;-1.00;99.90;;;;;;5062177;28;20375;-48
2021/12/25 11:45:41;;;;;;;3.67;2.75;;;-1.20;99.90;;;;;;5061791;28;20199;-48
2021/12/25 11:48:19;;;;;;;5.78;3.17;;;-1.30;99.90;;;;;;5062059;28;20227;-47
2021/12/25 11:50:51;;;;;;;3.80;3.40;;;-1.10;99.90;;;;;;5063545;28;20379;-51
2021/12/25 11:53:42;;;;;;;5.60;3.42;;;-1.10;99.90;;;;;;5064014;28;20203;-47
2021/12/25 11:58:46;;;;;;;4.43;3.17;;;-1.10;99.90;;;;;;5063802;28;20195;-46
2021/12/25 12:01:27;;;;;;;7.65;3.10;;;-1.10;99.90;;;;;;5063326;28;20219;-47
2021/12/25 12:03:57;;;;;;;4.97;2.72;;;-1.20;99.90;;;;;;5063497;28;20237;-49
2021/12/25 12:06:44;;;;;;;3.65;2.70;;;-1.30;99.90;;;;;;5062713;28;20318;-46
2021/12/25 12:09:12;;;;;;;4.28;2.70;;;-1.50;99.90;;;;;;5063447;28;20215;-48
2021/12/25 12:11:43;;;;;;;6.35;3.38;;;-1.40;99.90;;;;;;5063135;28;20200;-46
2021/12/25 12:14:16;;;;;;;6.50;3.38;;;-1.40;99.90;;;;;;5063470;28;20199;-49
2021/12/25 12:16:52;;;;;;;5.38;3.85;;;-1.50;99.90;;;;;;5062446;28;20596;-46
2021/12/25 12:19:35;;;;;;;6.70;2.72;;;-1.80;99.90;;;;;;5063339;28;20226;-46
2021/12/25 12:22:18;;;;;;;5.97;2.83;;;-1.90;99.90;;;;;;5064368;28;20220;-47
2021/12/25 12:27:42;;;;;;;3.47;2.70;;;-2.00;99.90;;;;;;5063033;28;20584;-46
2021/12/25 12:30:13;;;;;;;4.57;2.85;;;-1.60;99.90;;;;;;5064365;28;20195;-48
2021/12/25 12:32:44;;;;;;;3.00;2.33;;;-1.50;99.90;;;;;;5062727;28;20484;-49
2021/12/25 12:35:29;;;;;;;4.80;2.88;;;-1.60;99.90;;;;;;5062609;28;20192;-45
2021/12/25 12:38:39;;;;;;;8.00;4.20;;;-1.60;99.90;;;;;;5061460;28;20265;-47
2021/12/25 12:41:32;;;;;;;3.25;2.95;;;-1.60;99.90;;;;;;5060451;28;20201;-53
2021/12/25 12:44:05;;;;;;;3.40;2.90;;;-1.70;99.90;;;;;;5061118;28;20197;-46
2021/12/25 12:46:51;;;;;;;4.05;2.55;;;-1.70;99.90;;;;;;5060932;28;20224;-46
2021/12/25 12:49:27;;;;;;;6.00;3.80;;;-1.70;99.90;;;;;;5060777;28;20202;-49
2021/12/25 12:52:13;;;;;;;5.15;3.30;;;-1.70;99.90;;;;;;5059741;28;20199;-48
2021/12/25 12:54:45;;;;;;;5.32;3.22;;;-1.60;99.90;;;;;;5060985;28;20203;-47
2021/12/25 12:57:33;;;;;;;3.50;2.72;;;-1.80;99.90;;;;;;5061981;28;20225;-49
2021/12/25 13:00:07;;;;;;;6.07;3.20;;;-1.90;99.90;;;;;;5062024;28;20537;-49
2021/12/25 13:02:45;;;;;;;4.97;2.50;;;-1.90;99.90;;;;;;5061186;28;20600;-48
2021/12/25 13:05:16;;;;;;;6.22;2.58;;;-1.90;99.90;;;;;;5064252;28;20202;-47
2021/12/25 13:07:46;;;;;;;2.97;2.70;;;-2.00;99.90;;;;;;5063780;28;20282;-48
2021/12/25 13:10:21;;;;;;;3.67;3.08;;;-2.10;99.90;;;;;;5064553;28;20241;-47
2021/12/25 13:12:50;;;;;;;4.50;2.60;;;-2.20;99.90;;;;;;5065391;28;20187;-46
2021/12/25 13:15:25;;;;;;;4.20;2.95;;;-2.30;99.90;;;;;;5064494;28;20200;-48
2021/12/25 13:18:02;;;;;;;5.82;3.25;;;-2.40;99.90;;;;;;5064364;28;20218;-47
2021/12/25 13:20:44;;;;;;;5.80;3.15;;;-2.40;99.90;;;;;;5064212;28;20543;-45
2021/12/25 13:23:22;;;;;;;5.63;3.65;;;-2.50;99.90;;;;;;5064915;28;20564;-47
2021/12/25 13:25:58;;;;;;;8.93;4.40;;;-2.60;99.90;;;;;;5064772;28;20511;-46
2021/12/25 13:28:28;;;;;;;5.78;3.63;;;-2.70;99.90;;;;;;5065150;28;20210;-46
2021/12/25 13:31:02;;;;;;;3.55;2.97;;;-2.60;99.90;;;;;;5064849;28;20603;-46
2021/12/25 13:33:38;;;;;;;4.30;3.50;;;-2.50;99.90;;;;;;5066526;28;20191;-47
2021/12/25 13:36:09;;;;;;;8.00;3.38;;;-2.50;99.90;;;;;;5066162;28;20245;-48
2021/12/25 13:38:48;;;;;;;8.63;4.40;;;-2.50;99.90;;;;;;5066011;28;20233;-47
2021/12/25 13:41:27;;;;;;;8.70;4.57;;;-2.60;99.90;;;;;;5065758;28;20402;-48
2021/12/25 13:44:07;;;;;;;5.35;3.85;;;-2.50;99.90;;;;;;5066098;28;20219;-47
2021/12/25 13:46:48;;;;;;;5.00;4.53;;;-2.50;99.90;;;;;;5064786;28;20295;-46
2021/12/25 13:49:41;;;;;;;5.20;4.30;;;-2.50;99.90;;;;;;5065056;28;20242;-51
2021/12/25 13:52:20;;;;;;;5.80;3.63;;;-2.60;99.90;;;;;;5064112;28;20439;-48
2021/12/25 13:54:49;;;;;;;8.25;4.95;;;-2.60;99.90;;;;;;5064344;28;20506;-46
2021/12/25 13:57:18;;;;;;;7.47;2.75;;;-2.60;99.90;;;;;;5063866;28;20294;-50
2021/12/25 13:59:56;;;;;;;4.45;3.22;;;-2.60;99.90;;;;;;5064074;28;20230;-48
2021/12/25 14:02:25;;;;;;;5.25;3.13;;;-2.80;99.90;;;;;;5063755;28;20584;-45
2021/12/25 14:04:53;;;;;;;4.25;3.50;;;-3.00;99.90;;;;;;5063896;28;20206;-46
2021/12/25 14:07:24;;;;;;;6.32;3.90;;;-2.80;99.90;;;;;;5063160;28;20231;-48
2021/12/25 14:10:13;;;;;;;4.38;3.47;;;-2.80;99.90;;;;;;5064099;28;20241;-48
2021/12/25 14:12:46;;;;;;;5.57;4.50;;;-2.80;99.90;;;;;;5063520;28;20336;-51
2021/12/25 14:15:16;;;;;;;5.97;4.25;;;-2.70;99.90;;;;;;5063416;28;20245;-47
2021/12/25 14:17:45;;;;;;;7.45;5.18;;;-2.80;99.90;;;;;;5063924;28;20262;-45
2021/12/25 14:20:20;;;;;;;7.65;4.75;;;-3.00;99.90;;;;;;5064138;28;20204;-46
2021/12/25 14:22:50;;;;;;;13.10;5.55;;;-3.30;99.90;;;;;;5063133;28;20222;-47
2021/12/25 14:25:24;;;;;;;6.03;4.55;;;-3.40;99.90;;;;;;5063707;28;20195;-49